Methuen, Massachusetts
Current Conditions -  °F | °C
As of 3:54 AM on Monday 22 Dec 2014 (Local Time) from KLWM Reporting Station
Overcast Overcast  
Wind Chill: 26°   Ceiling: 5000
Heat Index: 31°   Visibility: 10mi
Dew Point: 24°   Wind: 5mph
Humidity: 76%   Direction: 10°N
Pressure: 30.37"   Gusts: NA
Location:  42.73°N, 71.19°W
Report Text: KLWM 220854Z AUTO 01004KT 10SM OVC050 M01/M04 A3037 RMK AO2 SLP286 T10061044 58001
Loading
Personal Weather Stations






























Interactive Weather Map New forecast layout! Learn more

10-Day Weather Forecast

Advertisements
Track Severe Weather on mobile